sensor_id;sensor_type;location;lat;lon;timestamp;pressure;altitude;pressure_sealevel;temperature;humidity
77889;BME280;67082;41.704;44.768;2023-11-19T00:00:27;95352.94;;;10.77;58.60
77889;BME280;67082;41.704;44.768;2023-11-19T00:03:15;95349.56;;;10.73;58.18
77889;BME280;67082;41.704;44.768;2023-11-19T00:05:44;95341.25;;;10.73;58.28
77889;BME280;67082;41.704;44.768;2023-11-19T00:08:15;95339.09;;;10.77;58.08
77889;BME280;67082;41.704;44.768;2023-11-19T00:10:43;95338.00;;;10.75;58.22
77889;BME280;67082;41.704;44.768;2023-11-19T00:13:11;95330.47;;;10.76;58.14
77889;BME280;67082;41.704;44.768;2023-11-19T00:15:40;95330.94;;;10.74;58.27
77889;BME280;67082;41.704;44.768;2023-11-19T00:18:10;95323.06;;;10.73;58.26
77889;BME280;67082;41.704;44.768;2023-11-19T00:20:39;95336.00;;;10.67;58.60
77889;BME280;67082;41.704;44.768;2023-11-19T00:23:06;95346.16;;;10.69;58.49
77889;BME280;67082;41.704;44.768;2023-11-19T00:25:35;95337.22;;;10.74;58.78
77889;BME280;67082;41.704;44.768;2023-11-19T00:28:03;95336.31;;;10.68;58.38
77889;BME280;67082;41.704;44.768;2023-11-19T00:30:31;95332.78;;;10.68;58.36
77889;BME280;67082;41.704;44.768;2023-11-19T00:32:59;95323.69;;;10.68;58.46
77889;BME280;67082;41.704;44.768;2023-11-19T00:35:30;95323.06;;;10.73;58.88
77889;BME280;67082;41.704;44.768;2023-11-19T00:37:59;95319.38;;;10.49;59.10
77889;BME280;67082;41.704;44.768;2023-11-19T00:40:28;95314.47;;;10.53;59.08
77889;BME280;67082;41.704;44.768;2023-11-19T00:42:56;95305.50;;;10.57;59.11
77889;BME280;67082;41.704;44.768;2023-11-19T00:45:27;95309.50;;;10.57;59.72
77889;BME280;67082;41.704;44.768;2023-11-19T00:47:55;95312.63;;;10.59;60.00
77889;BME280;67082;41.704;44.768;2023-11-19T00:50:24;95316.28;;;10.56;60.35
77889;BME280;67082;41.704;44.768;2023-11-19T00:52:51;95323.69;;;10.59;60.03
77889;BME280;67082;41.704;44.768;2023-11-19T00:55:20;95325.81;;;10.63;59.93
77889;BME280;67082;41.704;44.768;2023-11-19T00:57:47;95314.00;;;10.63;60.22
77889;BME280;67082;41.704;44.768;2023-11-19T01:00:16;95316.75;;;10.63;59.82
77889;BME280;67082;41.704;44.768;2023-11-19T01:02:48;95321.84;;;10.65;59.98
77889;BME280;67082;41.704;44.768;2023-11-19T01:05:22;95323.06;;;10.63;60.03
77889;BME280;67082;41.704;44.768;2023-11-19T01:07:51;95323.38;;;10.66;59.89
77889;BME280;67082;41.704;44.768;2023-11-19T01:10:23;95309.22;;;10.55;59.40
77889;BME280;67082;41.704;44.768;2023-11-19T01:12:52;95307.34;;;10.52;59.36
77889;BME280;67082;41.704;44.768;2023-11-19T01:15:21;95316.91;;;10.60;58.75
77889;BME280;67082;41.704;44.768;2023-11-19T01:17:50;95312.75;;;10.55;59.24
77889;BME280;67082;41.704;44.768;2023-11-19T01:20:20;95308.75;;;10.47;60.24
77889;BME280;67082;41.704;44.768;2023-11-19T01:22:49;95307.03;;;10.41;60.27
77889;BME280;67082;41.704;44.768;2023-11-19T01:25:20;95312.00;;;10.55;59.99
77889;BME280;67082;41.704;44.768;2023-11-19T01:27:48;95311.38;;;10.60;59.88
77889;BME280;67082;41.704;44.768;2023-11-19T01:30:19;95328.94;;;10.66;59.98
77889;BME280;67082;41.704;44.768;2023-11-19T01:32:49;95312.63;;;10.59;59.97
77889;BME280;67082;41.704;44.768;2023-11-19T01:35:17;95314.16;;;10.60;59.48
77889;BME280;67082;41.704;44.768;2023-11-19T01:37:45;95300.72;;;10.49;59.12
77889;BME280;67082;41.704;44.768;2023-11-19T01:40:14;95289.50;;;10.44;59.45
77889;BME280;67082;41.704;44.768;2023-11-19T01:42:44;95303.38;;;10.53;59.23
77889;BME280;67082;41.704;44.768;2023-11-19T01:45:22;95308.59;;;10.60;59.71
77889;BME280;67082;41.704;44.768;2023-11-19T01:47:55;95297.19;;;10.57;59.29
77889;BME280;67082;41.704;44.768;2023-11-19T01:50:24;95292.75;;;10.60;59.59
77889;BME280;67082;41.704;44.768;2023-11-19T01:52:54;95305.50;;;10.57;59.49
77889;BME280;67082;41.704;44.768;2023-11-19T01:55:23;95291.34;;;10.56;59.09
77889;BME280;67082;41.704;44.768;2023-11-19T01:57:53;95287.38;;;10.66;59.04
77889;BME280;67082;41.704;44.768;2023-11-19T02:00:24;95280.28;;;10.65;58.63
77889;BME280;67082;41.704;44.768;2023-11-19T02:02:53;95280.75;;;10.63;58.48
77889;BME280;67082;41.704;44.768;2023-11-19T02:05:22;95275.03;;;10.57;58.85
77889;BME280;67082;41.704;44.768;2023-11-19T02:07:50;95289.50;;;10.62;58.78
77889;BME280;67082;41.704;44.768;2023-11-19T02:10:21;95284.59;;;10.66;57.82
77889;BME280;67082;41.704;44.768;2023-11-19T02:12:52;95288.44;;;10.68;58.32
77889;BME280;67082;41.704;44.768;2023-11-19T02:15:33;95280.72;;;10.72;58.22
77889;BME280;67082;41.704;44.768;2023-11-19T02:18:24;95281.97;;;10.71;58.29
77889;BME280;67082;41.704;44.768;2023-11-19T02:20:59;95273.50;;;10.57;58.47
77889;BME280;67082;41.704;44.768;2023-11-19T02:23:28;95267.38;;;10.53;57.91
77889;BME280;67082;41.704;44.768;2023-11-19T02:28:32;95265.03;;;10.60;58.37
77889;BME280;67082;41.704;44.768;2023-11-19T02:31:01;95268.13;;;10.62;58.22
77889;BME280;67082;41.704;44.768;2023-11-19T02:33:32;95273.06;;;10.67;57.73
77889;BME280;67082;41.704;44.768;2023-11-19T02:36:00;95261.66;;;10.65;58.04
77889;BME280;67082;41.704;44.768;2023-11-19T02:38:31;95257.66;;;10.66;58.37
77889;BME280;67082;41.704;44.768;2023-11-19T02:40:59;95252.09;;;10.66;58.24
77889;BME280;67082;41.704;44.768;2023-11-19T02:43:29;95247.97;;;10.71;58.53
77889;BME280;67082;41.704;44.768;2023-11-19T02:46:03;95242.41;;;10.62;57.67
77889;BME280;67082;41.704;44.768;2023-11-19T02:48:38;95229.03;;;10.60;58.12
77889;BME280;67082;41.704;44.768;2023-11-19T02:51:06;95228.09;;;10.63;58.08
77889;BME280;67082;41.704;44.768;2023-11-19T02:53:38;95241.03;;;10.66;58.56
77889;BME280;67082;41.704;44.768;2023-11-19T02:56:08;95229.78;;;10.69;58.85
77889;BME280;67082;41.704;44.768;2023-11-19T02:58:54;95223.78;;;10.71;59.01
77889;BME280;67082;41.704;44.768;2023-11-19T03:01:24;95225.47;;;10.77;58.72
77889;BME280;67082;41.704;44.768;2023-11-19T03:03:59;95215.63;;;10.77;58.56
77889;BME280;67082;41.704;44.768;2023-11-19T03:06:30;95214.09;;;10.76;57.82
77889;BME280;67082;41.704;44.768;2023-11-19T03:08:58;95207.63;;;10.69;58.26
77889;BME280;67082;41.704;44.768;2023-11-19T03:11:26;95206.41;;;10.71;58.65
77889;BME280;67082;41.704;44.768;2023-11-19T03:13:54;95193.31;;;10.71;58.69
77889;BME280;67082;41.704;44.768;2023-11-19T03:16:22;95188.25;;;10.61;58.86
77889;BME280;67082;41.704;44.768;2023-11-19T03:18:50;95181.19;;;10.60;58.53
77889;BME280;67082;41.704;44.768;2023-11-19T03:21:19;95187.47;;;10.60;58.16
77889;BME280;67082;41.704;44.768;2023-11-19T03:23:47;95191.31;;;10.63;57.90
77889;BME280;67082;41.704;44.768;2023-11-19T03:26:16;95190.56;;;10.62;58.05
77889;BME280;67082;41.704;44.768;2023-11-19T03:28:44;95182.72;;;10.61;57.85
77889;BME280;67082;41.704;44.768;2023-11-19T03:31:14;95190.41;;;10.66;58.07
77889;BME280;67082;41.704;44.768;2023-11-19T03:33:42;95187.94;;;10.59;57.96
77889;BME280;67082;41.704;44.768;2023-11-19T03:36:11;95166.88;;;10.61;57.97
77889;BME280;67082;41.704;44.768;2023-11-19T03:38:40;95165.13;;;10.63;57.86
77889;BME280;67082;41.704;44.768;2023-11-19T03:41:12;95167.28;;;10.68;57.98
77889;BME280;67082;41.704;44.768;2023-11-19T03:43:40;95176.09;;;10.67;58.09
77889;BME280;67082;41.704;44.768;2023-11-19T03:46:21;95183.91;;;10.68;57.66
77889;BME280;67082;41.704;44.768;2023-11-19T03:48:50;95175.31;;;10.67;57.77
77889;BME280;67082;41.704;44.768;2023-11-19T03:51:18;95165.31;;;10.69;57.54
77889;BME280;67082;41.704;44.768;2023-11-19T03:53:46;95179.16;;;10.69;57.59
77889;BME280;67082;41.704;44.768;2023-11-19T03:56:14;95174.69;;;10.72;57.72
77889;BME280;67082;41.704;44.768;2023-11-19T03:58:42;95178.38;;;10.68;57.80
77889;BME280;67082;41.704;44.768;2023-11-19T04:01:11;95170.06;;;10.68;57.59
77889;BME280;67082;41.704;44.768;2023-11-19T04:03:43;95171.91;;;10.72;57.68
77889;BME280;67082;41.704;44.768;2023-11-19T04:06:15;95161.16;;;10.65;57.92
77889;BME280;67082;41.704;44.768;2023-11-19T04:08:43;95160.22;;;10.68;58.18
77889;BME280;67082;41.704;44.768;2023-11-19T04:11:11;95154.06;;;10.63;58.61
77889;BME280;67082;41.704;44.768;2023-11-19T04:13:39;95172.84;;;10.68;58.02
77889;BME280;67082;41.704;44.768;2023-11-19T04:16:07;95171.91;;;10.72;57.70
77889;BME280;67082;41.704;44.768;2023-11-19T04:18:35;95173.16;;;10.71;57.77
77889;BME280;67082;41.704;44.768;2023-11-19T04:21:06;95175.75;;;10.65;57.78
77889;BME280;67082;41.704;44.768;2023-11-19T04:23:35;95176.84;;;10.68;58.01
77889;BME280;67082;41.704;44.768;2023-11-19T04:26:04;95179.44;;;10.71;57.85
77889;BME280;67082;41.704;44.768;2023-11-19T04:28:35;95182.06;;;10.74;57.86
77889;BME280;67082;41.704;44.768;2023-11-19T04:31:03;95180.69;;;10.70;58.40
77889;BME280;67082;41.704;44.768;2023-11-19T04:33:31;95182.69;;;10.69;59.00
77889;BME280;67082;41.704;44.768;2023-11-19T04:35:59;95171.91;;;10.72;58.86
77889;BME280;67082;41.704;44.768;2023-11-19T04:38:29;95184.25;;;10.71;58.72
77889;BME280;67082;41.704;44.768;2023-11-19T04:40:58;95176.50;;;10.74;58.72
77889;BME280;67082;41.704;44.768;2023-11-19T04:43:26;95183.00;;;10.72;58.12
77889;BME280;67082;41.704;44.768;2023-11-19T04:45:54;95184.25;;;10.71;57.78
77889;BME280;67082;41.704;44.768;2023-11-19T04:48:23;95191.81;;;10.61;57.52
77889;BME280;67082;41.704;44.768;2023-11-19T04:50:51;95186.84;;;10.74;57.44
77889;BME280;67082;41.704;44.768;2023-11-19T04:53:20;95187.13;;;10.76;57.75
77889;BME280;67082;41.704;44.768;2023-11-19T04:55:48;95181.59;;;10.76;57.60
77889;BME280;67082;41.704;44.768;2023-11-19T04:58:16;95172.38;;;10.79;57.29
77889;BME280;67082;41.704;44.768;2023-11-19T05:00:44;95178.66;;;10.79;57.54
77889;BME280;67082;41.704;44.768;2023-11-19T05:03:12;95181.59;;;10.85;57.43
77889;BME280;67082;41.704;44.768;2023-11-19T05:05:41;95185.56;;;10.93;57.58
77889;BME280;67082;41.704;44.768;2023-11-19T05:08:09;95187.44;;;10.87;57.82
77889;BME280;67082;41.704;44.768;2023-11-19T05:10:37;95191.16;;;10.84;58.23
77889;BME280;67082;41.704;44.768;2023-11-19T05:13:04;95173.75;;;10.74;58.95
77889;BME280;67082;41.704;44.768;2023-11-19T05:15:33;95177.78;;;10.65;60.05
77889;BME280;67082;41.704;44.768;2023-11-19T05:18:01;95182.38;;;10.68;60.08
77889;BME280;67082;41.704;44.768;2023-11-19T05:20:29;95187.59;;;10.74;59.78
77889;BME280;67082;41.704;44.768;2023-11-19T05:22:57;95186.38;;;10.76;60.17
77889;BME280;67082;41.704;44.768;2023-11-19T05:25:28;95184.53;;;10.82;60.15
77889;BME280;67082;41.704;44.768;2023-11-19T05:27:56;95180.81;;;10.84;60.05
77889;BME280;67082;41.704;44.768;2023-11-19T05:30:26;95181.25;;;10.92;59.49
77889;BME280;67082;41.704;44.768;2023-11-19T05:32:54;95190.47;;;10.98;59.95
77889;BME280;67082;41.704;44.768;2023-11-19T05:35:23;95197.56;;;10.99;60.39
77889;BME280;67082;41.704;44.768;2023-11-19T05:37:51;95193.53;;;11.00;60.23
77889;BME280;67082;41.704;44.768;2023-11-19T05:40:22;95196.63;;;11.02;60.09
77889;BME280;67082;41.704;44.768;2023-11-19T05:42:50;95192.19;;;10.95;60.31
77889;BME280;67082;41.704;44.768;2023-11-19T05:45:19;95186.75;;;11.01;60.14
77889;BME280;67082;41.704;44.768;2023-11-19T05:47:47;95189.06;;;11.02;60.36
77889;BME280;67082;41.704;44.768;2023-11-19T05:50:15;95189.41;;;11.04;60.13
77889;BME280;67082;41.704;44.768;2023-11-19T05:52:43;95185.84;;;11.04;60.08
77889;BME280;67082;41.704;44.768;2023-11-19T05:55:12;95191.09;;;11.02;60.29
77889;BME280;67082;41.704;44.768;2023-11-19T05:57:40;95190.59;;;11.03;60.11
77889;BME280;67082;41.704;44.768;2023-11-19T06:00:12;95193.06;;;11.10;59.73
77889;BME280;67082;41.704;44.768;2023-11-19T06:02:40;95186.56;;;11.13;59.77
77889;BME280;67082;41.704;44.768;2023-11-19T06:05:09;95189.63;;;11.15;59.80
77889;BME280;67082;41.704;44.768;2023-11-19T06:07:39;95189.63;;;11.15;60.10
77889;BME280;67082;41.704;44.768;2023-11-19T06:10:09;95193.34;;;11.21;60.18
77889;BME280;67082;41.704;44.768;2023-11-19T06:12:38;95182.41;;;11.18;60.16
77889;BME280;67082;41.704;44.768;2023-11-19T06:15:09;95177.28;;;11.25;60.09
77889;BME280;67082;41.704;44.768;2023-11-19T06:17:38;95182.53;;;11.23;59.96
77889;BME280;67082;41.704;44.768;2023-11-19T06:20:07;95189.44;;;11.28;59.79
77889;BME280;67082;41.704;44.768;2023-11-19T06:22:35;95197.47;;;11.26;59.83
77889;BME280;67082;41.704;44.768;2023-11-19T06:25:06;95197.03;;;11.18;59.85
77889;BME280;67082;41.704;44.768;2023-11-19T06:27:35;95196.44;;;11.14;60.40
77889;BME280;67082;41.704;44.768;2023-11-19T06:30:05;95202.59;;;11.18;60.54
77889;BME280;67082;41.704;44.768;2023-11-19T06:32:33;95198.91;;;11.21;60.69
77889;BME280;67082;41.704;44.768;2023-11-19T06:35:01;95192.22;;;11.28;60.17
77889;BME280;67082;41.704;44.768;2023-11-19T06:37:31;95196.69;;;11.34;59.78
77889;BME280;67082;41.704;44.768;2023-11-19T06:39:59;95187.75;;;11.30;60.61
77889;BME280;67082;41.704;44.768;2023-11-19T06:42:29;95186.50;;;11.31;60.21
77889;BME280;67082;41.704;44.768;2023-11-19T06:44:57;95194.19;;;11.36;59.83
77889;BME280;67082;41.704;44.768;2023-11-19T06:47:26;95190.34;;;11.34;59.42
77889;BME280;67082;41.704;44.768;2023-11-19T06:49:55;95190.78;;;11.41;59.08
77889;BME280;67082;41.704;44.768;2023-11-19T06:52:23;95192.66;;;11.35;58.97
77889;BME280;67082;41.704;44.768;2023-11-19T06:54:52;95191.41;;;11.36;58.57
77889;BME280;67082;41.704;44.768;2023-11-19T06:57:20;95198.81;;;11.39;58.71
77889;BME280;67082;41.704;44.768;2023-11-19T06:59:48;95202.16;;;11.43;58.54
77889;BME280;67082;41.704;44.768;2023-11-19T07:02:16;95189.88;;;11.44;58.17
77889;BME280;67082;41.704;44.768;2023-11-19T07:04:44;95186.78;;;11.42;58.06
77889;BME280;67082;41.704;44.768;2023-11-19T07:07:12;95171.66;;;11.43;57.93
77889;BME280;67082;41.704;44.768;2023-11-19T07:09:43;95172.28;;;11.38;58.05
77889;BME280;67082;41.704;44.768;2023-11-19T07:12:11;95178.75;;;11.44;57.93
77889;BME280;67082;41.704;44.768;2023-11-19T07:14:41;95174.59;;;11.40;57.48
77889;BME280;67082;41.704;44.768;2023-11-19T07:17:09;95186.03;;;11.42;57.63
77889;BME280;67082;41.704;44.768;2023-11-19T07:19:38;95189.88;;;11.44;57.96
77889;BME280;67082;41.704;44.768;2023-11-19T07:22:06;95195.09;;;11.42;58.57
77889;BME280;67082;41.704;44.768;2023-11-19T07:24:34;95186.78;;;11.42;58.73
77889;BME280;67082;41.704;44.768;2023-11-19T07:27:02;95182.59;;;11.47;58.14
77889;BME280;67082;41.704;44.768;2023-11-19T07:29:32;95176.22;;;11.55;57.99
77889;BME280;67082;41.704;44.768;2023-11-19T07:32:00;95170.66;;;11.55;58.14
77889;BME280;67082;41.704;44.768;2023-11-19T07:34:30;95182.09;;;11.57;58.44
77889;BME280;67082;41.704;44.768;2023-11-19T07:36:58;95173.16;;;11.62;59.44
77889;BME280;67082;41.704;44.768;2023-11-19T07:39:30;95168.69;;;11.56;59.89
77889;BME280;67082;41.704;44.768;2023-11-19T07:41:58;95163.41;;;11.58;60.75
77889;BME280;67082;41.704;44.768;2023-11-19T07:44:27;95156.22;;;11.51;60.63
77889;BME280;67082;41.704;44.768;2023-11-19T07:46:55;95146.56;;;11.38;60.92
77889;BME280;67082;41.704;44.768;2023-11-19T07:49:26;95144.88;;;11.40;60.98
77889;BME280;67082;41.704;44.768;2023-11-19T07:51:54;95151.59;;;11.48;60.80
77889;BME280;67082;41.704;44.768;2023-11-19T07:54:22;95154.09;;;11.46;60.99
77889;BME280;67082;41.704;44.768;2023-11-19T07:56:50;95164.22;;;11.49;61.13
77889;BME280;67082;41.704;44.768;2023-11-19T07:59:19;95157.28;;;11.54;60.59
77889;BME280;67082;41.704;44.768;2023-11-19T08:01:47;95148.34;;;11.59;60.67
77889;BME280;67082;41.704;44.768;2023-11-19T08:04:16;95139.69;;;11.66;60.35
77889;BME280;67082;41.704;44.768;2023-11-19T08:06:44;95135.91;;;11.78;60.51
77889;BME280;67082;41.704;44.768;2023-11-19T08:09:13;95125.91;;;11.71;60.55
77889;BME280;67082;41.704;44.768;2023-11-19T08:11:42;95118.47;;;11.77;60.33
77889;BME280;67082;41.704;44.768;2023-11-19T08:14:10;95112.22;;;11.68;60.66
77889;BME280;67082;41.704;44.768;2023-11-19T08:16:39;95110.53;;;11.61;60.83
77889;BME280;67082;41.704;44.768;2023-11-19T08:19:08;95117.50;;;11.57;60.69
77889;BME280;67082;41.704;44.768;2023-11-19T08:21:36;95114.44;;;11.78;60.24
77889;BME280;67082;41.704;44.768;2023-11-19T08:24:06;95116.97;;;11.91;59.39
77889;BME280;67082;41.704;44.768;2023-11-19T08:26:34;95107.81;;;11.99;58.69
77889;BME280;67082;41.704;44.768;2023-11-19T08:29:02;95090.94;;;11.88;58.47
77889;BME280;67082;41.704;44.768;2023-11-19T08:31:30;95086.63;;;11.87;59.19
77889;BME280;67082;41.704;44.768;2023-11-19T08:33:59;95079.09;;;11.88;58.98
77889;BME280;67082;41.704;44.768;2023-11-19T08:36:27;95076.63;;;12.04;57.71
77889;BME280;67082;41.704;44.768;2023-11-19T08:38:55;95080.06;;;11.99;58.41
77889;BME280;67082;41.704;44.768;2023-11-19T08:41:24;95065.97;;;12.03;57.45
77889;BME280;67082;41.704;44.768;2023-11-19T08:43:53;95073.41;;;12.20;57.33
77889;BME280;67082;41.704;44.768;2023-11-19T08:46:21;95071.03;;;12.28;56.50
77889;BME280;67082;41.704;44.768;2023-11-19T08:48:49;95070.53;;;12.29;55.91
77889;BME280;67082;41.704;44.768;2023-11-19T08:51:17;95065.53;;;12.33;55.59
77889;BME280;67082;41.704;44.768;2023-11-19T08:53:46;95073.22;;;12.38;55.68
77889;BME280;67082;41.704;44.768;2023-11-19T08:56:14;95074.75;;;12.39;56.08
77889;BME280;67082;41.704;44.768;2023-11-19T08:58:42;95062.00;;;12.33;56.21
77889;BME280;67082;41.704;44.768;2023-11-19T09:01:10;95078.09;;;12.14;57.11
77889;BME280;67082;41.704;44.768;2023-11-19T09:03:39;95076.25;;;12.11;56.96
77889;BME280;67082;41.704;44.768;2023-11-19T09:06:07;95078.84;;;12.29;56.63
77889;BME280;67082;41.704;44.768;2023-11-19T09:08:35;95076.25;;;12.26;56.82
77889;BME280;67082;41.704;44.768;2023-11-19T09:11:07;95075.53;;;12.40;56.58
77889;BME280;67082;41.704;44.768;2023-11-19T09:13:36;95071.69;;;12.52;56.50
77889;BME280;67082;41.704;44.768;2023-11-19T09:16:04;95065.56;;;12.62;56.12
77889;BME280;67082;41.704;44.768;2023-11-19T09:18:33;95071.38;;;12.64;56.08
77889;BME280;67082;41.704;44.768;2023-11-19T09:21:01;95062.88;;;12.68;55.86
77889;BME280;67082;41.704;44.768;2023-11-19T09:23:29;95064.97;;;12.73;55.53
77889;BME280;67082;41.704;44.768;2023-11-19T09:26:00;95069.84;;;12.78;54.66
77889;BME280;67082;41.704;44.768;2023-11-19T09:28:28;95058.56;;;12.52;56.18
77889;BME280;67082;41.704;44.768;2023-11-19T09:30:56;95058.84;;;12.54;56.28
77889;BME280;67082;41.704;44.768;2023-11-19T09:33:25;95073.69;;;12.66;56.07
77889;BME280;67082;41.704;44.768;2023-11-19T09:35:54;95068.25;;;12.71;55.63
77889;BME280;67082;41.704;44.768;2023-11-19T09:38:22;95056.31;;;12.85;55.30
77889;BME280;67082;41.704;44.768;2023-11-19T09:40:50;95062.88;;;12.82;55.16
77889;BME280;67082;41.704;44.768;2023-11-19T09:43:19;95064.56;;;12.94;54.70
77889;BME280;67082;41.704;44.768;2023-11-19T09:45:49;95042.03;;;12.92;54.76
77889;BME280;67082;41.704;44.768;2023-11-19T09:48:20;95040.63;;;12.82;55.31
77889;BME280;67082;41.704;44.768;2023-11-19T09:50:48;95044.16;;;12.97;54.69
77889;BME280;67082;41.704;44.768;2023-11-19T09:53:18;95039.81;;;13.11;54.84
77889;BME280;67082;41.704;44.768;2023-11-19T09:55:48;95034.03;;;13.14;54.64
77889;BME280;67082;41.704;44.768;2023-11-19T09:58:16;95023.91;;;13.11;54.48
77889;BME280;67082;41.704;44.768;2023-11-19T10:00:44;95016.19;;;13.21;54.95
77889;BME280;67082;41.704;44.768;2023-11-19T10:03:27;95013.94;;;13.25;54.38
77889;BME280;67082;41.704;44.768;2023-11-19T10:05:57;95012.31;;;13.33;54.45
77889;BME280;67082;41.704;44.768;2023-11-19T10:08:26;95004.22;;;13.35;54.54
77889;BME280;67082;41.704;44.768;2023-11-19T10:10:55;94991.00;;;13.30;54.23
77889;BME280;67082;41.704;44.768;2023-11-19T10:13:29;95002.75;;;13.39;54.42
77889;BME280;67082;41.704;44.768;2023-11-19T10:15:59;94994.41;;;13.39;53.95
77889;BME280;67082;41.704;44.768;2023-11-19T10:18:32;94995.25;;;13.45;54.00
77889;BME280;67082;41.704;44.768;2023-11-19T10:21:07;94993.13;;;13.55;53.29
77889;BME280;67082;41.704;44.768;2023-11-19T10:24:02;94995.91;;;13.55;53.08
77889;BME280;67082;41.704;44.768;2023-11-19T10:26:30;94978.69;;;13.56;53.25
77889;BME280;67082;41.704;44.768;2023-11-19T10:28:58;94982.25;;;13.57;53.00
77889;BME280;67082;41.704;44.768;2023-11-19T10:31:33;94998.25;;;13.62;53.23
77889;BME280;67082;41.704;44.768;2023-11-19T10:37:40;94983.03;;;13.83;52.71
77889;BME280;67082;41.704;44.768;2023-11-19T10:47:19;94980.50;;;13.39;53.16
77889;BME280;67082;41.704;44.768;2023-11-19T10:50:05;94984.56;;;13.58;52.92
77889;BME280;67082;41.704;44.768;2023-11-19T10:52:36;94974.53;;;13.66;52.67
77889;BME280;67082;41.704;44.768;2023-11-19T10:55:08;94967.81;;;13.78;52.44
77889;BME280;67082;41.704;44.768;2023-11-19T10:57:39;94972.47;;;13.87;51.92
77889;BME280;67082;41.704;44.768;2023-11-19T11:00:13;94967.34;;;13.80;52.41
77889;BME280;67082;41.704;44.768;2023-11-19T11:02:50;94972.13;;;13.79;52.11
77889;BME280;67082;41.704;44.768;2023-11-19T11:05:26;94978.25;;;13.83;51.97
77889;BME280;67082;41.704;44.768;2023-11-19T11:07:55;94971.59;;;13.75;50.53
77889;BME280;67082;41.704;44.768;2023-11-19T11:10:26;94970.59;;;13.78;50.86
77889;BME280;67082;41.704;44.768;2023-11-19T11:12:56;94968.13;;;13.80;50.63
77889;BME280;67082;41.704;44.768;2023-11-19T11:15:27;94971.19;;;13.62;50.16
77889;BME280;67082;41.704;44.768;2023-11-19T11:18:01;94980.56;;;13.65;49.91
77889;BME280;67082;41.704;44.768;2023-11-19T11:20:31;94972.00;;;13.68;50.29
77889;BME280;67082;41.704;44.768;2023-11-19T11:23:21;94971.09;;;13.77;50.07
77889;BME280;67082;41.704;44.768;2023-11-19T11:28:52;94957.47;;;13.79;49.73
77889;BME280;67082;41.704;44.768;2023-11-19T11:37:18;94954.34;;;13.71;50.45
77889;BME280;67082;41.704;44.768;2023-11-19T11:39:47;94949.09;;;13.79;50.01
77889;BME280;67082;41.704;44.768;2023-11-19T11:45:09;94945.97;;;13.71;50.67
77889;BME280;67082;41.704;44.768;2023-11-19T11:50:19;94947.25;;;13.70;50.85
77889;BME280;67082;41.704;44.768;2023-11-19T11:58:08;94953.78;;;13.67;50.77
77889;BME280;67082;41.704;44.768;2023-11-19T12:00:41;94949.25;;;13.70;50.76
77889;BME280;67082;41.704;44.768;2023-11-19T12:03:12;94955.28;;;13.68;51.64
77889;BME280;67082;41.704;44.768;2023-11-19T12:05:47;94949.31;;;13.75;51.39
77889;BME280;67082;41.704;44.768;2023-11-19T12:08:18;94946.69;;;13.66;51.01
77889;BME280;67082;41.704;44.768;2023-11-19T12:10:54;94943.63;;;13.64;50.94
77889;BME280;67082;41.704;44.768;2023-11-19T12:13:46;94939.06;;;13.41;51.40
77889;BME280;67082;41.704;44.768;2023-11-19T12:16:15;94934.59;;;13.49;51.33
77889;BME280;67082;41.704;44.768;2023-11-19T12:18:43;94938.19;;;13.55;51.32
77889;BME280;67082;41.704;44.768;2023-11-19T12:21:27;94940.06;;;13.64;51.60
77889;BME280;67082;41.704;44.768;2023-11-19T12:23:58;94943.06;;;13.60;51.69
77889;BME280;67082;41.704;44.768;2023-11-19T12:26:36;94935.19;;;13.59;51.90
77889;BME280;67082;41.704;44.768;2023-11-19T12:29:04;94938.28;;;13.61;51.91
77889;BME280;67082;41.704;44.768;2023-11-19T12:31:36;94950.16;;;13.61;52.17
77889;BME280;67082;41.704;44.768;2023-11-19T12:34:08;94941.28;;;13.57;51.85
77889;BME280;67082;41.704;44.768;2023-11-19T12:36:41;94941.28;;;13.57;52.29
77889;BME280;67082;41.704;44.768;2023-11-19T12:39:09;94946.03;;;13.51;52.03
77889;BME280;67082;41.704;44.768;2023-11-19T12:41:53;94941.47;;;13.54;52.47
77889;BME280;67082;41.704;44.768;2023-11-19T12:44:22;94946.28;;;13.53;52.35
77889;BME280;67082;41.704;44.768;2023-11-19T12:47:00;94948.28;;;13.53;52.61
77889;BME280;67082;41.704;44.768;2023-11-19T12:49:29;94943.50;;;13.53;52.53
77889;BME280;67082;41.704;44.768;2023-11-19T12:51:58;94938.16;;;13.50;52.33
77889;BME280;67082;41.704;44.768;2023-11-19T12:54:36;94939.19;;;13.52;52.52
77889;BME280;67082;41.704;44.768;2023-11-19T12:57:05;94936.41;;;13.52;52.96
77889;BME280;67082;41.704;44.768;2023-11-19T12:59:33;94935.38;;;13.50;53.07
77889;BME280;67082;41.704;44.768;2023-11-19T13:02:01;94923.81;;;13.37;53.29
77889;BME280;67082;41.704;44.768;2023-11-19T13:04:33;94904.41;;;13.42;53.24
77889;BME280;67082;41.704;44.768;2023-11-19T13:07:02;94904.94;;;13.21;53.41
77889;BME280;67082;41.704;44.768;2023-11-19T13:09:33;94909.06;;;13.31;53.78
77889;BME280;67082;41.704;44.768;2023-11-19T13:12:12;94903.72;;;13.27;54.41
77889;BME280;67082;41.704;44.768;2023-11-19T13:14:42;94903.50;;;13.31;53.87
77889;BME280;67082;41.704;44.768;2023-11-19T13:17:15;94901.03;;;13.33;54.49
77889;BME280;67082;41.704;44.768;2023-11-19T13:19:43;94893.38;;;13.28;54.35
77889;BME280;67082;41.704;44.768;2023-11-19T13:22:17;94895.59;;;13.24;54.07
77889;BME280;67082;41.704;44.768;2023-11-19T13:24:45;94890.72;;;13.19;54.22
77889;BME280;67082;41.704;44.768;2023-11-19T13:27:14;94884.13;;;13.16;54.59
77889;BME280;67082;41.704;44.768;2023-11-19T13:29:42;94894.41;;;13.10;54.67
77889;BME280;67082;41.704;44.768;2023-11-19T13:32:10;94888.00;;;13.04;55.34
77889;BME280;67082;41.704;44.768;2023-11-19T13:34:39;94892.34;;;13.05;54.27
77889;BME280;67082;41.704;44.768;2023-11-19T13:37:07;94900.13;;;13.01;54.92